KMTJ/MTJ METAR and TAF weather

Enter ICAO airport designator
Station Type Date Time Source
KMTJ METAR 2020/01/27 16:53 UTC NOAA

KMTJ 271653Z AUTO 35010KT 3/4SM -SN BR BKN003 OVC010 M01/M02 A3009 RMK AO2 SLP196 P0002 T10111022


Station Type Date Time Source
KMTJ Decoded METAR 2020/01/27 16:53 UTC NOAA

MONTROSE REGIONAL AIRPORT, CO, United States (KMTJ) 38-30N 107-54W 1750M
Jan 27, 2020 - 11:53 AM EST / 2020.01.27 1653 UTC
Wind: from the N (350 degrees) at 12 MPH (10 KT):0
Visibility: 3/4 mile(s):0
Sky conditions: overcast
Weather: light snow; mist
Precipitation last hour: 0.02 inches
Temperature: 30.0 F (-1.1 C)
Windchill: 19 F (-7 C):1
Dew Point: 28.0 F (-2.2 C)
Relative Humidity: 92%
Pressure (altimeter): 30.09 in. Hg (1018 hPa)
ob: KMTJ 271653Z AUTO 35010KT 3/4SM -SN BR BKN003 OVC010 M01/M02 A3009 RMK AO2 SLP196 P0002 T10111022
cycle: 17

Station Type Date Time Source
KMTJ TAF 2020/01/27 15:34 UTC NOAA

TAF
AMD KMTJ 271432Z 2715/2812 33005KT 3/4SM -SN BR SCT002 OVC010
TEMPO 2715/2718 1SM -SN BR OVC015
FM271800 30007KT 3SM -SN BR OVC020
FM280000 29007KT P6SM SCT016
FM280600 14005KT P6SM BKN030 OVC200

Example: see airport list